sensor_id;sensor_type;location;lat;lon;timestamp;temperature;humidity
19496;DHT22;9888;48.606;9.630;2023-01-15T00:00:25;9.30;99.90
19496;DHT22;9888;48.606;9.630;2023-01-15T00:02:54;9.40;99.90
19496;DHT22;9888;48.606;9.630;2023-01-15T00:05:22;9.40;99.90
19496;DHT22;9888;48.606;9.630;2023-01-15T00:07:50;9.40;99.90
19496;DHT22;9888;48.606;9.630;2023-01-15T00:10:17;9.50;99.90
19496;DHT22;9888;48.606;9.630;2023-01-15T00:12:45;9.40;99.90
19496;DHT22;9888;48.606;9.630;2023-01-15T00:15:12;9.40;99.90
19496;DHT22;9888;48.606;9.630;2023-01-15T00:17:39;9.50;99.90
19496;DHT22;9888;48.606;9.630;2023-01-15T00:20:06;9.50;99.90
19496;DHT22;9888;48.606;9.630;2023-01-15T00:22:34;9.50;99.90
19496;DHT22;9888;48.606;9.630;2023-01-15T00:25:01;9.50;99.90
19496;DHT22;9888;48.606;9.630;2023-01-15T00:27:47;9.60;99.90
19496;DHT22;9888;48.606;9.630;2023-01-15T00:30:15;9.60;99.90
19496;DHT22;9888;48.606;9.630;2023-01-15T00:32:45;9.50;99.90
19496;DHT22;9888;48.606;9.630;2023-01-15T00:35:18;9.50;99.90
19496;DHT22;9888;48.606;9.630;2023-01-15T00:37:45;9.60;99.90
19496;DHT22;9888;48.606;9.630;2023-01-15T00:40:13;9.60;99.90
19496;DHT22;9888;48.606;9.630;2023-01-15T00:42:49;9.70;99.90
19496;DHT22;9888;48.606;9.630;2023-01-15T00:45:16;9.60;99.90
19496;DHT22;9888;48.606;9.630;2023-01-15T00:47:44;9.60;99.90
19496;DHT22;9888;48.606;9.630;2023-01-15T00:50:14;9.50;99.90
19496;DHT22;9888;48.606;9.630;2023-01-15T00:52:42;9.50;99.90
19496;DHT22;9888;48.606;9.630;2023-01-15T00:55:11;9.50;99.90
19496;DHT22;9888;48.606;9.630;2023-01-15T00:57:38;9.60;99.90
19496;DHT22;9888;48.606;9.630;2023-01-15T01:00:05;9.70;99.90
19496;DHT22;9888;48.606;9.630;2023-01-15T01:02:33;9.70;99.90
19496;DHT22;9888;48.606;9.630;2023-01-15T01:05:00;9.70;99.90
19496;DHT22;9888;48.606;9.630;2023-01-15T01:07:27;9.70;99.90
19496;DHT22;9888;48.606;9.630;2023-01-15T01:09:55;9.70;99.90
19496;DHT22;9888;48.606;9.630;2023-01-15T01:12:22;9.70;99.90
19496;DHT22;9888;48.606;9.630;2023-01-15T01:14:52;9.70;99.90
19496;DHT22;9888;48.606;9.630;2023-01-15T01:17:20;9.70;99.90
19496;DHT22;9888;48.606;9.630;2023-01-15T01:19:47;9.60;99.90
19496;DHT22;9888;48.606;9.630;2023-01-15T01:22:15;9.60;99.90
19496;DHT22;9888;48.606;9.630;2023-01-15T01:24:42;9.50;99.90
19496;DHT22;9888;48.606;9.630;2023-01-15T01:27:09;9.50;99.90
19496;DHT22;9888;48.606;9.630;2023-01-15T01:29:37;9.40;99.90
19496;DHT22;9888;48.606;9.630;2023-01-15T01:32:04;9.20;99.90
19496;DHT22;9888;48.606;9.630;2023-01-15T01:34:31;9.10;99.90
19496;DHT22;9888;48.606;9.630;2023-01-15T01:36:59;9.00;99.90
19496;DHT22;9888;48.606;9.630;2023-01-15T01:39:27;8.90;99.90
19496;DHT22;9888;48.606;9.630;2023-01-15T01:41:54;8.80;99.90
19496;DHT22;9888;48.606;9.630;2023-01-15T01:47:12;8.80;99.90
19496;DHT22;9888;48.606;9.630;2023-01-15T01:49:50;8.80;99.90
19496;DHT22;9888;48.606;9.630;2023-01-15T01:52:22;8.90;99.90
19496;DHT22;9888;48.606;9.630;2023-01-15T01:54:52;9.00;99.90
19496;DHT22;9888;48.606;9.630;2023-01-15T01:57:20;9.00;99.90
19496;DHT22;9888;48.606;9.630;2023-01-15T01:59:48;8.90;99.90
19496;DHT22;9888;48.606;9.630;2023-01-15T02:02:17;8.70;99.90
19496;DHT22;9888;48.606;9.630;2023-01-15T02:04:46;8.60;99.90
19496;DHT22;9888;48.606;9.630;2023-01-15T02:07:14;8.50;99.90
19496;DHT22;9888;48.606;9.630;2023-01-15T02:09:41;8.50;99.90
19496;DHT22;9888;48.606;9.630;2023-01-15T02:12:24;8.60;99.90
19496;DHT22;9888;48.606;9.630;2023-01-15T02:15:22;8.60;99.90
19496;DHT22;9888;48.606;9.630;2023-01-15T02:18:26;8.60;99.90
19496;DHT22;9888;48.606;9.630;2023-01-15T02:21:18;8.80;99.90
19496;DHT22;9888;48.606;9.630;2023-01-15T02:24:11;8.80;99.90
19496;DHT22;9888;48.606;9.630;2023-01-15T02:27:09;8.90;99.90
19496;DHT22;9888;48.606;9.630;2023-01-15T02:30:09;8.90;99.90
19496;DHT22;9888;48.606;9.630;2023-01-15T02:33:01;8.90;99.90
19496;DHT22;9888;48.606;9.630;2023-01-15T02:35:49;8.90;99.90
19496;DHT22;9888;48.606;9.630;2023-01-15T02:38:22;8.90;99.90
19496;DHT22;9888;48.606;9.630;2023-01-15T02:40:54;8.90;99.90
19496;DHT22;9888;48.606;9.630;2023-01-15T02:43:22;9.00;99.90
19496;DHT22;9888;48.606;9.630;2023-01-15T02:45:53;9.00;99.90
19496;DHT22;9888;48.606;9.630;2023-01-15T02:48:25;9.00;99.90
19496;DHT22;9888;48.606;9.630;2023-01-15T02:51:09;9.00;99.90
19496;DHT22;9888;48.606;9.630;2023-01-15T02:53:39;9.10;99.90
19496;DHT22;9888;48.606;9.630;2023-01-15T02:56:17;9.10;99.90
19496;DHT22;9888;48.606;9.630;2023-01-15T02:58:48;9.00;99.90
19496;DHT22;9888;48.606;9.630;2023-01-15T03:01:32;9.00;99.90
19496;DHT22;9888;48.606;9.630;2023-01-15T03:04:33;9.00;99.90
19496;DHT22;9888;48.606;9.630;2023-01-15T03:07:31;9.10;99.90
19496;DHT22;9888;48.606;9.630;2023-01-15T03:10:03;9.10;99.90
19496;DHT22;9888;48.606;9.630;2023-01-15T03:12:54;9.00;99.90
19496;DHT22;9888;48.606;9.630;2023-01-15T03:15:52;9.00;99.90
19496;DHT22;9888;48.606;9.630;2023-01-15T03:21:16;9.00;99.90
19496;DHT22;9888;48.606;9.630;2023-01-15T03:23:50;9.00;99.90
19496;DHT22;9888;48.606;9.630;2023-01-15T03:26:18;9.00;99.90
19496;DHT22;9888;48.606;9.630;2023-01-15T03:28:48;9.00;99.90
19496;DHT22;9888;48.606;9.630;2023-01-15T03:31:16;9.00;99.90
19496;DHT22;9888;48.606;9.630;2023-01-15T03:33:44;9.00;99.90
19496;DHT22;9888;48.606;9.630;2023-01-15T03:36:11;9.00;99.90
19496;DHT22;9888;48.606;9.630;2023-01-15T03:38:40;9.00;99.90
19496;DHT22;9888;48.606;9.630;2023-01-15T03:47:06;8.90;99.90
19496;DHT22;9888;48.606;9.630;2023-01-15T03:52:40;8.80;99.90
19496;DHT22;9888;48.606;9.630;2023-01-15T03:55:18;8.80;99.90
19496;DHT22;9888;48.606;9.630;2023-01-15T03:57:59;8.80;99.90
19496;DHT22;9888;48.606;9.630;2023-01-15T04:00:37;8.70;99.90
19496;DHT22;9888;48.606;9.630;2023-01-15T04:03:08;8.70;99.90
19496;DHT22;9888;48.606;9.630;2023-01-15T04:05:38;8.60;99.90
19496;DHT22;9888;48.606;9.630;2023-01-15T04:08:10;8.70;99.90
19496;DHT22;9888;48.606;9.630;2023-01-15T04:10:53;8.70;99.90
19496;DHT22;9888;48.606;9.630;2023-01-15T04:13:22;8.80;99.90
19496;DHT22;9888;48.606;9.630;2023-01-15T04:15:50;8.80;99.90
19496;DHT22;9888;48.606;9.630;2023-01-15T04:18:17;8.80;99.90
19496;DHT22;9888;48.606;9.630;2023-01-15T04:20:45;8.80;99.90
19496;DHT22;9888;48.606;9.630;2023-01-15T04:23:14;8.70;99.90
19496;DHT22;9888;48.606;9.630;2023-01-15T04:25:41;8.70;99.90
19496;DHT22;9888;48.606;9.630;2023-01-15T04:28:08;8.70;99.90
19496;DHT22;9888;48.606;9.630;2023-01-15T04:30:36;8.60;99.90
19496;DHT22;9888;48.606;9.630;2023-01-15T04:33:03;8.60;99.90
19496;DHT22;9888;48.606;9.630;2023-01-15T04:35:30;8.60;99.90
19496;DHT22;9888;48.606;9.630;2023-01-15T04:37:58;8.70;99.90
19496;DHT22;9888;48.606;9.630;2023-01-15T04:40:25;8.70;99.90
19496;DHT22;9888;48.606;9.630;2023-01-15T04:43:12;8.60;99.90
19496;DHT22;9888;48.606;9.630;2023-01-15T04:45:58;8.60;99.90
19496;DHT22;9888;48.606;9.630;2023-01-15T04:48:25;8.60;99.90
19496;DHT22;9888;48.606;9.630;2023-01-15T04:50:52;8.50;99.90
19496;DHT22;9888;48.606;9.630;2023-01-15T04:53:19;8.50;99.90
19496;DHT22;9888;48.606;9.630;2023-01-15T04:55:46;8.60;99.90
19496;DHT22;9888;48.606;9.630;2023-01-15T04:58:13;8.60;99.90
19496;DHT22;9888;48.606;9.630;2023-01-15T05:00:40;8.80;99.90
19496;DHT22;9888;48.606;9.630;2023-01-15T05:03:07;8.90;99.90
19496;DHT22;9888;48.606;9.630;2023-01-15T05:05:34;9.00;99.90
19496;DHT22;9888;48.606;9.630;2023-01-15T05:08:05;9.00;99.90
19496;DHT22;9888;48.606;9.630;2023-01-15T05:10:32;9.00;99.90
19496;DHT22;9888;48.606;9.630;2023-01-15T05:12:59;9.10;99.90
19496;DHT22;9888;48.606;9.630;2023-01-15T05:15:28;9.10;99.90
19496;DHT22;9888;48.606;9.630;2023-01-15T05:17:55;9.10;99.90
19496;DHT22;9888;48.606;9.630;2023-01-15T05:20:22;9.20;99.90
19496;DHT22;9888;48.606;9.630;2023-01-15T05:22:49;9.20;99.90
19496;DHT22;9888;48.606;9.630;2023-01-15T05:25:16;9.10;99.90
19496;DHT22;9888;48.606;9.630;2023-01-15T05:27:43;9.20;99.90
19496;DHT22;9888;48.606;9.630;2023-01-15T05:30:10;9.20;99.90
19496;DHT22;9888;48.606;9.630;2023-01-15T05:32:39;9.20;99.90
19496;DHT22;9888;48.606;9.630;2023-01-15T05:35:09;9.40;99.90
19496;DHT22;9888;48.606;9.630;2023-01-15T05:37:39;9.40;99.90
19496;DHT22;9888;48.606;9.630;2023-01-15T05:40:07;9.40;99.90
19496;DHT22;9888;48.606;9.630;2023-01-15T05:42:34;9.50;99.90
19496;DHT22;9888;48.606;9.630;2023-01-15T05:45:01;9.50;99.90
19496;DHT22;9888;48.606;9.630;2023-01-15T05:47:28;9.50;99.90
19496;DHT22;9888;48.606;9.630;2023-01-15T05:49:55;9.50;99.90
19496;DHT22;9888;48.606;9.630;2023-01-15T05:52:23;9.50;99.90
19496;DHT22;9888;48.606;9.630;2023-01-15T05:54:49;9.70;99.90
19496;DHT22;9888;48.606;9.630;2023-01-15T05:57:18;9.70;99.90
19496;DHT22;9888;48.606;9.630;2023-01-15T05:59:44;9.70;99.90
19496;DHT22;9888;48.606;9.630;2023-01-15T06:02:12;9.60;99.90
19496;DHT22;9888;48.606;9.630;2023-01-15T06:04:38;9.60;99.90
19496;DHT22;9888;48.606;9.630;2023-01-15T06:07:05;9.60;99.90
19496;DHT22;9888;48.606;9.630;2023-01-15T06:09:32;9.50;99.90
19496;DHT22;9888;48.606;9.630;2023-01-15T06:11:59;9.40;99.90
19496;DHT22;9888;48.606;9.630;2023-01-15T06:14:26;9.40;99.90
19496;DHT22;9888;48.606;9.630;2023-01-15T06:16:53;9.30;99.90
19496;DHT22;9888;48.606;9.630;2023-01-15T06:19:20;9.30;99.90
19496;DHT22;9888;48.606;9.630;2023-01-15T06:21:47;9.20;99.90
19496;DHT22;9888;48.606;9.630;2023-01-15T06:24:15;9.10;99.90
19496;DHT22;9888;48.606;9.630;2023-01-15T06:26:42;9.00;99.90
19496;DHT22;9888;48.606;9.630;2023-01-15T06:29:10;9.00;99.90
19496;DHT22;9888;48.606;9.630;2023-01-15T06:31:37;8.90;99.90
19496;DHT22;9888;48.606;9.630;2023-01-15T06:34:04;8.90;99.90
19496;DHT22;9888;48.606;9.630;2023-01-15T06:36:32;8.80;99.90
19496;DHT22;9888;48.606;9.630;2023-01-15T06:39:00;8.30;99.90
19496;DHT22;9888;48.606;9.630;2023-01-15T06:44:51;7.20;99.90
19496;DHT22;9888;48.606;9.630;2023-01-15T06:47:36;6.90;99.90
19496;DHT22;9888;48.606;9.630;2023-01-15T06:50:06;6.60;99.90
19496;DHT22;9888;48.606;9.630;2023-01-15T06:52:35;6.50;99.90
19496;DHT22;9888;48.606;9.630;2023-01-15T06:55:01;6.30;99.90
19496;DHT22;9888;48.606;9.630;2023-01-15T06:57:29;6.10;99.90
19496;DHT22;9888;48.606;9.630;2023-01-15T06:59:58;6.00;99.90
19496;DHT22;9888;48.606;9.630;2023-01-15T07:02:26;5.90;99.90
19496;DHT22;9888;48.606;9.630;2023-01-15T07:04:52;5.80;99.90
19496;DHT22;9888;48.606;9.630;2023-01-15T07:07:21;5.80;99.90
19496;DHT22;9888;48.606;9.630;2023-01-15T07:09:49;5.70;99.90
19496;DHT22;9888;48.606;9.630;2023-01-15T07:12:16;5.60;99.90
19496;DHT22;9888;48.606;9.630;2023-01-15T07:14:45;5.60;99.90
19496;DHT22;9888;48.606;9.630;2023-01-15T07:17:12;5.60;99.90
19496;DHT22;9888;48.606;9.630;2023-01-15T07:19:41;5.50;99.90
19496;DHT22;9888;48.606;9.630;2023-01-15T07:22:17;5.40;99.90
19496;DHT22;9888;48.606;9.630;2023-01-15T07:24:44;5.40;99.90
19496;DHT22;9888;48.606;9.630;2023-01-15T07:27:11;5.30;99.90
19496;DHT22;9888;48.606;9.630;2023-01-15T07:29:38;5.30;99.90
19496;DHT22;9888;48.606;9.630;2023-01-15T07:32:07;5.30;99.90
19496;DHT22;9888;48.606;9.630;2023-01-15T07:34:34;5.20;99.90
19496;DHT22;9888;48.606;9.630;2023-01-15T07:37:02;5.20;99.90
19496;DHT22;9888;48.606;9.630;2023-01-15T07:39:29;5.10;99.90
19496;DHT22;9888;48.606;9.630;2023-01-15T07:41:57;5.10;99.90
19496;DHT22;9888;48.606;9.630;2023-01-15T07:44:44;5.10;99.90
19496;DHT22;9888;48.606;9.630;2023-01-15T07:47:30;5.10;99.90
19496;DHT22;9888;48.606;9.630;2023-01-15T07:50:22;5.00;99.90
19496;DHT22;9888;48.606;9.630;2023-01-15T07:52:50;5.00;99.90
19496;DHT22;9888;48.606;9.630;2023-01-15T07:55:17;4.90;99.90
19496;DHT22;9888;48.606;9.630;2023-01-15T07:57:45;4.80;99.90
19496;DHT22;9888;48.606;9.630;2023-01-15T08:00:15;4.70;99.90
19496;DHT22;9888;48.606;9.630;2023-01-15T08:02:47;4.60;99.90
19496;DHT22;9888;48.606;9.630;2023-01-15T08:05:16;4.50;99.90
19496;DHT22;9888;48.606;9.630;2023-01-15T08:07:44;4.40;99.90
19496;DHT22;9888;48.606;9.630;2023-01-15T08:10:14;4.20;99.90
19496;DHT22;9888;48.606;9.630;2023-01-15T08:12:41;4.00;99.90
19496;DHT22;9888;48.606;9.630;2023-01-15T08:15:31;3.90;99.90
19496;DHT22;9888;48.606;9.630;2023-01-15T08:17:59;3.80;99.90
19496;DHT22;9888;48.606;9.630;2023-01-15T08:20:30;3.70;99.90
19496;DHT22;9888;48.606;9.630;2023-01-15T08:22:56;3.70;99.90
19496;DHT22;9888;48.606;9.630;2023-01-15T08:25:26;3.60;99.90
19496;DHT22;9888;48.606;9.630;2023-01-15T08:27:54;3.50;99.90
19496;DHT22;9888;48.606;9.630;2023-01-15T08:30:24;3.50;99.90
19496;DHT22;9888;48.606;9.630;2023-01-15T08:32:51;3.50;99.90
19496;DHT22;9888;48.606;9.630;2023-01-15T08:35:18;3.50;99.90
19496;DHT22;9888;48.606;9.630;2023-01-15T08:37:45;3.50;99.90
19496;DHT22;9888;48.606;9.630;2023-01-15T08:40:14;3.50;99.90
19496;DHT22;9888;48.606;9.630;2023-01-15T08:42:42;3.50;99.90
19496;DHT22;9888;48.606;9.630;2023-01-15T08:45:18;3.50;99.90
19496;DHT22;9888;48.606;9.630;2023-01-15T08:47:45;3.50;99.90
19496;DHT22;9888;48.606;9.630;2023-01-15T08:50:12;3.50;99.90
19496;DHT22;9888;48.606;9.630;2023-01-15T08:52:40;3.40;99.90
19496;DHT22;9888;48.606;9.630;2023-01-15T08:55:09;3.40;99.90
19496;DHT22;9888;48.606;9.630;2023-01-15T08:57:36;3.30;99.90
19496;DHT22;9888;48.606;9.630;2023-01-15T09:00:06;3.30;99.90
19496;DHT22;9888;48.606;9.630;2023-01-15T09:02:34;3.30;99.90
19496;DHT22;9888;48.606;9.630;2023-01-15T09:05:02;3.30;99.90
19496;DHT22;9888;48.606;9.630;2023-01-15T09:07:30;3.30;99.90
19496;DHT22;9888;48.606;9.630;2023-01-15T09:10:02;3.30;99.90
19496;DHT22;9888;48.606;9.630;2023-01-15T09:12:31;3.40;99.90
19496;DHT22;9888;48.606;9.630;2023-01-15T09:14:59;3.30;99.90
19496;DHT22;9888;48.606;9.630;2023-01-15T09:17:27;3.30;99.90
19496;DHT22;9888;48.606;9.630;2023-01-15T09:19:56;3.40;99.90
19496;DHT22;9888;48.606;9.630;2023-01-15T09:22:23;3.40;99.90
19496;DHT22;9888;48.606;9.630;2023-01-15T09:24:55;3.40;99.90
19496;DHT22;9888;48.606;9.630;2023-01-15T09:27:22;3.40;99.90
19496;DHT22;9888;48.606;9.630;2023-01-15T09:29:50;3.40;99.90
19496;DHT22;9888;48.606;9.630;2023-01-15T09:32:17;3.40;99.90
19496;DHT22;9888;48.606;9.630;2023-01-15T09:34:45;3.40;99.90
19496;DHT22;9888;48.606;9.630;2023-01-15T09:37:14;3.30;99.90
19496;DHT22;9888;48.606;9.630;2023-01-15T09:39:41;3.30;99.90
19496;DHT22;9888;48.606;9.630;2023-01-15T09:42:42;3.30;99.90
19496;DHT22;9888;48.606;9.630;2023-01-15T09:45:29;3.30;99.90
19496;DHT22;9888;48.606;9.630;2023-01-15T09:48:31;3.40;99.90
19496;DHT22;9888;48.606;9.630;2023-01-15T09:56:28;3.40;99.90
19496;DHT22;9888;48.606;9.630;2023-01-15T09:59:00;3.30;99.90
19496;DHT22;9888;48.606;9.630;2023-01-15T10:01:33;3.30;99.90
19496;DHT22;9888;48.606;9.630;2023-01-15T10:04:05;3.30;99.90
19496;DHT22;9888;48.606;9.630;2023-01-15T10:06:53;3.30;99.90
19496;DHT22;9888;48.606;9.630;2023-01-15T10:09:28;3.40;99.90
19496;DHT22;9888;48.606;9.630;2023-01-15T10:12:20;3.50;99.90
19496;DHT22;9888;48.606;9.630;2023-01-15T10:17:54;3.50;99.90
19496;DHT22;9888;48.606;9.630;2023-01-15T10:23:20;3.50;99.90
19496;DHT22;9888;48.606;9.630;2023-01-15T10:26:04;3.50;99.90
19496;DHT22;9888;48.606;9.630;2023-01-15T10:28:51;3.50;99.90
19496;DHT22;9888;48.606;9.630;2023-01-15T10:31:22;3.50;99.90
19496;DHT22;9888;48.606;9.630;2023-01-15T10:36:33;3.40;99.90
19496;DHT22;9888;48.606;9.630;2023-01-15T10:42:15;3.40;99.90
19496;DHT22;9888;48.606;9.630;2023-01-15T10:45:15;3.40;99.90
19496;DHT22;9888;48.606;9.630;2023-01-15T10:47:50;3.40;99.90
19496;DHT22;9888;48.606;9.630;2023-01-15T10:50:22;3.40;99.90
19496;DHT22;9888;48.606;9.630;2023-01-15T10:53:08;3.40;99.90
19496;DHT22;9888;48.606;9.630;2023-01-15T10:55:44;3.40;99.90
19496;DHT22;9888;48.606;9.630;2023-01-15T11:00:48;3.40;99.90
19496;DHT22;9888;48.606;9.630;2023-01-15T11:03:24;3.40;99.90
19496;DHT22;9888;48.606;9.630;2023-01-15T11:05:59;3.30;99.90
19496;DHT22;9888;48.606;9.630;2023-01-15T11:08:30;3.30;99.90
19496;DHT22;9888;48.606;9.630;2023-01-15T11:11:17;3.20;99.90
19496;DHT22;9888;48.606;9.630;2023-01-15T11:13:56;3.20;99.90
19496;DHT22;9888;48.606;9.630;2023-01-15T11:16:43;3.20;99.90
19496;DHT22;9888;48.606;9.630;2023-01-15T11:19:38;3.20;99.90
19496;DHT22;9888;48.606;9.630;2023-01-15T11:24:52;3.10;99.90
19496;DHT22;9888;48.606;9.630;2023-01-15T11:27:26;3.00;99.90
19496;DHT22;9888;48.606;9.630;2023-01-15T11:30:00;3.00;99.90
19496;DHT22;9888;48.606;9.630;2023-01-15T11:33:15;3.00;99.90
19496;DHT22;9888;48.606;9.630;2023-01-15T11:36:03;3.00;99.90
19496;DHT22;9888;48.606;9.630;2023-01-15T11:38:44;2.90;99.90
19496;DHT22;9888;48.606;9.630;2023-01-15T11:41:21;2.80;99.90
19496;DHT22;9888;48.606;9.630;2023-01-15T11:43:57;2.70;99.90
19496;DHT22;9888;48.606;9.630;2023-01-15T11:46:45;2.80;99.90
19496;DHT22;9888;48.606;9.630;2023-01-15T11:49:31;2.70;99.90
19496;DHT22;9888;48.606;9.630;2023-01-15T11:52:22;2.80;99.90
19496;DHT22;9888;48.606;9.630;2023-01-15T11:54:52;2.70;99.90
19496;DHT22;9888;48.606;9.630;2023-01-15T11:57:31;2.70;99.90
19496;DHT22;9888;48.606;9.630;2023-01-15T12:00:02;2.60;99.90
19496;DHT22;9888;48.606;9.630;2023-01-15T12:02:34;2.40;99.90
19496;DHT22;9888;48.606;9.630;2023-01-15T12:05:12;2.00;99.90
19496;DHT22;9888;48.606;9.630;2023-01-15T12:07:42;1.50;99.90
19496;DHT22;9888;48.606;9.630;2023-01-15T12:10:33;1.30;99.90
19496;DHT22;9888;48.606;9.630;2023-01-15T12:13:41;1.20;99.90
19496;DHT22;9888;48.606;9.630;2023-01-15T12:16:40;1.20;99.90
19496;DHT22;9888;48.606;9.630;2023-01-15T12:28:01;1.30;99.90
19496;DHT22;9888;48.606;9.630;2023-01-15T12:33:33;1.40;99.90
19496;DHT22;9888;48.606;9.630;2023-01-15T12:36:21;1.40;99.90
19496;DHT22;9888;48.606;9.630;2023-01-15T12:41:31;1.50;99.90
19496;DHT22;9888;48.606;9.630;2023-01-15T12:44:32;1.50;99.90
19496;DHT22;9888;48.606;9.630;2023-01-15T12:47:27;1.50;99.90
19496;DHT22;9888;48.606;9.630;2023-01-15T12:52:39;1.60;99.90
19496;DHT22;9888;48.606;9.630;2023-01-15T12:55:19;1.60;99.90
19496;DHT22;9888;48.606;9.630;2023-01-15T12:57:59;1.60;99.90
19496;DHT22;9888;48.606;9.630;2023-01-15T13:00:41;1.70;99.90
19496;DHT22;9888;48.606;9.630;2023-01-15T13:03:20;1.70;99.90
19496;DHT22;9888;48.606;9.630;2023-01-15T13:06:04;1.70;99.90
19496;DHT22;9888;48.606;9.630;2023-01-15T13:08:57;1.70;99.90
19496;DHT22;9888;48.606;9.630;2023-01-15T13:11:28;1.80;99.90
19496;DHT22;9888;48.606;9.630;2023-01-15T13:13:55;1.80;99.90
19496;DHT22;9888;48.606;9.630;2023-01-15T13:22:04;1.80;99.90
19496;DHT22;9888;48.606;9.630;2023-01-15T13:33:51;2.00;99.90
19496;DHT22;9888;48.606;9.630;2023-01-15T13:36:25;2.00;99.90
19496;DHT22;9888;48.606;9.630;2023-01-15T13:39:00;2.10;99.90
19496;DHT22;9888;48.606;9.630;2023-01-15T13:41:32;2.10;99.90
19496;DHT22;9888;48.606;9.630;2023-01-15T13:44:21;2.10;99.90
19496;DHT22;9888;48.606;9.630;2023-01-15T13:47:06;2.20;99.90
19496;DHT22;9888;48.606;9.630;2023-01-15T13:49:52;2.20;99.90
19496;DHT22;9888;48.606;9.630;2023-01-15T13:52:32;2.30;99.90
19496;DHT22;9888;48.606;9.630;2023-01-15T13:57:42;2.40;99.90
19496;DHT22;9888;48.606;9.630;2023-01-15T14:00:35;2.40;99.90
19496;DHT22;9888;48.606;9.630;2023-01-15T14:03:25;2.40;99.90
19496;DHT22;9888;48.606;9.630;2023-01-15T14:06:06;2.40;99.90
19496;DHT22;9888;48.606;9.630;2023-01-15T14:08:45;2.40;99.90
19496;DHT22;9888;48.606;9.630;2023-01-15T14:11:43;2.40;99.90
19496;DHT22;9888;48.606;9.630;2023-01-15T14:14:39;2.50;99.90
19496;DHT22;9888;48.606;9.630;2023-01-15T14:20:09;2.50;99.90
19496;DHT22;9888;48.606;9.630;2023-01-15T14:23:01;2.50;99.90
19496;DHT22;9888;48.606;9.630;2023-01-15T14:32:27;2.50;99.90
19496;DHT22;9888;48.606;9.630;2023-01-15T14:34:59;2.50;99.90
19496;DHT22;9888;48.606;9.630;2023-01-15T14:37:38;2.60;99.90
19496;DHT22;9888;48.606;9.630;2023-01-15T14:40:27;2.60;99.90
19496;DHT22;9888;48.606;9.630;2023-01-15T14:42:58;2.60;99.90
19496;DHT22;9888;48.606;9.630;2023-01-15T14:45:31;2.70;99.90
19496;DHT22;9888;48.606;9.630;2023-01-15T14:48:01;2.80;99.90
19496;DHT22;9888;48.606;9.630;2023-01-15T14:50:34;2.80;99.90
19496;DHT22;9888;48.606;9.630;2023-01-15T15:01:16;2.70;99.90
19496;DHT22;9888;48.606;9.630;2023-01-15T15:03:55;2.70;99.90
19496;DHT22;9888;48.606;9.630;2023-01-15T15:06:25;2.70;99.90
19496;DHT22;9888;48.606;9.630;2023-01-15T15:09:02;2.80;99.90
19496;DHT22;9888;48.606;9.630;2023-01-15T15:11:41;2.80;99.90
19496;DHT22;9888;48.606;9.630;2023-01-15T15:14:27;2.80;99.90
19496;DHT22;9888;48.606;9.630;2023-01-15T15:16:59;2.80;99.90
19496;DHT22;9888;48.606;9.630;2023-01-15T15:19:37;2.70;99.90
19496;DHT22;9888;48.606;9.630;2023-01-15T15:22:11;2.80;99.90
19496;DHT22;9888;48.606;9.630;2023-01-15T15:24:48;2.70;99.90
19496;DHT22;9888;48.606;9.630;2023-01-15T15:27:19;2.70;99.90
19496;DHT22;9888;48.606;9.630;2023-01-15T15:29:47;2.60;99.90
19496;DHT22;9888;48.606;9.630;2023-01-15T15:32:25;2.60;99.90
19496;DHT22;9888;48.606;9.630;2023-01-15T15:34:53;2.50;99.90
19496;DHT22;9888;48.606;9.630;2023-01-15T15:37:26;2.50;99.90
19496;DHT22;9888;48.606;9.630;2023-01-15T15:40:16;2.50;99.90
19496;DHT22;9888;48.606;9.630;2023-01-15T15:43:01;2.40;99.90
19496;DHT22;9888;48.606;9.630;2023-01-15T15:45:54;2.30;99.90
19496;DHT22;9888;48.606;9.630;2023-01-15T15:48:41;2.40;99.90
19496;DHT22;9888;48.606;9.630;2023-01-15T15:51:33;2.20;99.90
19496;DHT22;9888;48.606;9.630;2023-01-15T15:56:39;2.20;99.90
19496;DHT22;9888;48.606;9.630;2023-01-15T15:59:24;2.20;99.90
19496;DHT22;9888;48.606;9.630;2023-01-15T16:01:55;2.10;99.90
19496;DHT22;9888;48.606;9.630;2023-01-15T16:04:22;2.00;99.90
19496;DHT22;9888;48.606;9.630;2023-01-15T16:06:50;1.90;99.90
19496;DHT22;9888;48.606;9.630;2023-01-15T16:09:22;2.00;99.90
19496;DHT22;9888;48.606;9.630;2023-01-15T16:11:51;2.20;99.90
19496;DHT22;9888;48.606;9.630;2023-01-15T16:14:21;2.20;99.90
19496;DHT22;9888;48.606;9.630;2023-01-15T16:16:49;2.20;99.90
19496;DHT22;9888;48.606;9.630;2023-01-15T16:19:21;2.30;99.90
19496;DHT22;9888;48.606;9.630;2023-01-15T16:21:51;2.30;99.90
19496;DHT22;9888;48.606;9.630;2023-01-15T16:24:27;2.20;99.90
19496;DHT22;9888;48.606;9.630;2023-01-15T16:27:02;2.20;99.90
19496;DHT22;9888;48.606;9.630;2023-01-15T16:29:39;2.30;99.90
19496;DHT22;9888;48.606;9.630;2023-01-15T16:32:17;2.20;99.90
19496;DHT22;9888;48.606;9.630;2023-01-15T16:34:49;2.30;99.90
19496;DHT22;9888;48.606;9.630;2023-01-15T16:37:28;2.40;99.90
19496;DHT22;9888;48.606;9.630;2023-01-15T16:40:03;2.30;99.90
19496;DHT22;9888;48.606;9.630;2023-01-15T16:42:38;2.40;99.90
19496;DHT22;9888;48.606;9.630;2023-01-15T16:45:20;2.20;99.90
19496;DHT22;9888;48.606;9.630;2023-01-15T16:50:34;2.10;99.90
19496;DHT22;9888;48.606;9.630;2023-01-15T16:53:04;1.90;99.90
19496;DHT22;9888;48.606;9.630;2023-01-15T16:55:39;1.90;99.90
19496;DHT22;9888;48.606;9.630;2023-01-15T17:01:31;2.00;99.90
19496;DHT22;9888;48.606;9.630;2023-01-15T17:04:02;2.10;99.90
19496;DHT22;9888;48.606;9.630;2023-01-15T17:06:30;2.10;99.90
19496;DHT22;9888;48.606;9.630;2023-01-15T17:08:59;2.00;99.90
19496;DHT22;9888;48.606;9.630;2023-01-15T17:11:28;2.00;99.90
19496;DHT22;9888;48.606;9.630;2023-01-15T17:14:22;1.90;99.90
19496;DHT22;9888;48.606;9.630;2023-01-15T17:19:45;1.70;99.90
19496;DHT22;9888;48.606;9.630;2023-01-15T17:22:43;1.70;99.90
19496;DHT22;9888;48.606;9.630;2023-01-15T17:25:34;1.70;99.90
19496;DHT22;9888;48.606;9.630;2023-01-15T17:28:05;1.70;99.90
19496;DHT22;9888;48.606;9.630;2023-01-15T17:30:33;1.70;99.90
19496;DHT22;9888;48.606;9.630;2023-01-15T17:33:02;1.70;99.90
19496;DHT22;9888;48.606;9.630;2023-01-15T17:35:35;1.50;99.90
19496;DHT22;9888;48.606;9.630;2023-01-15T17:38:04;1.50;99.90
19496;DHT22;9888;48.606;9.630;2023-01-15T17:40:33;1.40;99.90
19496;DHT22;9888;48.606;9.630;2023-01-15T17:43:00;1.20;99.90
19496;DHT22;9888;48.606;9.630;2023-01-15T17:45:30;1.30;99.90
19496;DHT22;9888;48.606;9.630;2023-01-15T17:48:00;1.20;99.90
19496;DHT22;9888;48.606;9.630;2023-01-15T17:50:29;0.90;99.90
19496;DHT22;9888;48.606;9.630;2023-01-15T17:52:57;0.80;99.90
19496;DHT22;9888;48.606;9.630;2023-01-15T17:55:26;0.60;99.90
19496;DHT22;9888;48.606;9.630;2023-01-15T17:58:12;0.40;99.90
19496;DHT22;9888;48.606;9.630;2023-01-15T18:01:09;0.30;99.90
19496;DHT22;9888;48.606;9.630;2023-01-15T18:03:55;0.30;99.90
19496;DHT22;9888;48.606;9.630;2023-01-15T18:06:50;0.30;99.90
19496;DHT22;9888;48.606;9.630;2023-01-15T18:09:20;0.20;99.90
19496;DHT22;9888;48.606;9.630;2023-01-15T18:11:48;0.20;99.90
19496;DHT22;9888;48.606;9.630;2023-01-15T18:14:16;0.30;99.90
19496;DHT22;9888;48.606;9.630;2023-01-15T18:16:43;0.30;99.90
19496;DHT22;9888;48.606;9.630;2023-01-15T18:19:10;0.40;99.90
19496;DHT22;9888;48.606;9.630;2023-01-15T18:21:39;0.40;99.90
19496;DHT22;9888;48.606;9.630;2023-01-15T18:24:10;0.70;99.90
19496;DHT22;9888;48.606;9.630;2023-01-15T18:26:39;1.00;99.90
19496;DHT22;9888;48.606;9.630;2023-01-15T18:29:07;1.00;99.90